Time;durP1;ratioP1;P1;durP2;ratioP2;P2;SDS_P1;SDS_P2;PMS_P1;PMS_P2;Temp;Humidity;BMP_temperature;BMP_pressure;BME280_temperature;BME280_humidity;BME280_pressure;Samples;Min_cycle;Max_cycle;Signal;HPM_P1;HPM_P2
2024/04/16 00:02:15;;;;;;;;;;;;;;;;;;6738003;26;19932;-60
2024/04/16 00:05:21;;;;;;;;;;;;;;;;;;6736027;26;20102;-60
2024/04/16 00:08:26;;;;;;;;;;;;;;;;;;6767602;26;20024;-61
2024/04/16 00:11:31;;;;;;;;;;;;;;;;;;6811572;26;19931;-60
2024/04/16 00:14:39;;;;;;;;;;;;;;;;;;6824961;26;20021;-60
2024/04/16 00:17:45;;;;;;;;;;;;;;;;;;6826753;26;19931;-60
2024/04/16 00:20:51;;;;;;;;;;;;;;;;;;6825639;26;19951;-60
2024/04/16 00:23:56;;;;;;;;;;;;;;;;;;6810502;26;20025;-61
2024/04/16 00:26:59;;;;;;;;;;;;;;;;;;6782580;26;19927;-60
2024/04/16 00:30:04;;;;;;;;;;;;;;;;;;6782098;26;19931;-60
2024/04/16 00:33:07;;;;;;;;;;;;;;;;;;6781885;26;20795;-61
2024/04/16 00:36:15;;;;;;;;;;;;;;;;;;6782189;26;19948;-61
2024/04/16 00:39:17;;;;;;;;;;;;;;;;;;6780953;26;19924;-60
2024/04/16 00:42:23;;;;;;;;;;;;;;;;;;6782089;26;20169;-60
2024/04/16 00:45:28;;;;;;;;;;;;;;;;;;6781272;26;19932;-61
2024/04/16 00:48:30;;;;;;;;;;;;;;;;;;6781791;26;20136;-60
2024/04/16 00:51:39;;;;;;;;;;;;;;;;;;6782499;26;19924;-61
2024/04/16 00:54:45;;;;;;;;;;;;;;;;;;6780174;26;20029;-60
2024/04/16 00:57:50;;;;;;;;;;;;;;;;;;6780611;26;19924;-60
2024/04/16 01:00:53;;;;;;;;;;;;;;;;;;6776548;26;20106;-60
2024/04/16 01:03:58;;;;;;;;;;;;;;;;;;6781458;26;19934;-61
2024/04/16 01:07:04;;;;;;;;;;;;;;;;;;6778921;26;19924;-61
2024/04/16 01:10:09;;;;;;;;;;;;;;;;;;6788593;26;20114;-61
2024/04/16 01:13:12;;;;;;;;;;;;;;;;;;6825637;26;19931;-60
2024/04/16 01:16:18;;;;;;;;;;;;;;;;;;6826845;26;19931;-60
2024/04/16 01:19:20;;;;;;;;;;;;;;;;;;6826204;26;19930;-61
2024/04/16 01:22:28;;;;;;;;;;;;;;;;;;6826496;26;19931;-60
2024/04/16 01:25:35;;;;;;;;;;;;;;;;;;6784329;26;25949;-60
2024/04/16 01:28:41;;;;;;;;;;;;;;;;;;6780803;26;19931;-61
2024/04/16 01:31:43;;;;;;;;;;;;;;;;;;6781335;26;19948;-60
2024/04/16 01:34:48;;;;;;;;;;;;;;;;;;6780849;26;20137;-60
2024/04/16 01:37:51;;;;;;;;;;;;;;;;;;6779566;26;19924;-60
2024/04/16 01:40:59;;;;;;;;;;;;;;;;;;6780200;26;19932;-61
2024/04/16 01:44:02;;;;;;;;;;;;;;;;;;6780410;26;19936;-60
2024/04/16 01:47:08;;;;;;;;;;;;;;;;;;6780988;26;19925;-60
2024/04/16 01:50:11;;;;;;;;;;;;;;;;;;6783831;26;19929;-60
2024/04/16 01:53:16;;;;;;;;;;;;;;;;;;6784591;26;19924;-60
2024/04/16 01:56:21;;;;;;;;;;;;;;;;;;6785066;26;19925;-60
2024/04/16 01:59:26;;;;;;;;;;;;;;;;;;6782190;26;20106;-61
2024/04/16 02:02:30;;;;;;;;;;;;;;;;;;6785019;26;20106;-60
2024/04/16 02:05:35;;;;;;;;;;;;;;;;;;6784464;26;19931;-60
2024/04/16 02:08:38;;;;;;;;;;;;;;;;;;6783840;26;19928;-60
2024/04/16 02:11:46;;;;;;;;;;;;;;;;;;6760577;26;19925;-60
2024/04/16 02:14:49;;;;;;;;;;;;;;;;;;6739468;26;20030;-60
2024/04/16 02:17:54;;;;;;;;;;;;;;;;;;6744874;26;19963;-60
2024/04/16 02:20:57;;;;;;;;;;;;;;;;;;6755644;26;19925;-61
2024/04/16 02:24:02;;;;;;;;;;;;;;;;;;6753780;26;20190;-61
2024/04/16 02:27:07;;;;;;;;;;;;;;;;;;6783967;26;19925;-60
2024/04/16 02:30:12;;;;;;;;;;;;;;;;;;6738768;26;20126;-61
2024/04/16 02:33:15;;;;;;;;;;;;;;;;;;6738818;26;19929;-61
2024/04/16 02:36:21;;;;;;;;;;;;;;;;;;6739315;26;20308;-60
2024/04/16 02:39:24;;;;;;;;;;;;;;;;;;6737979;26;19937;-60
2024/04/16 02:42:32;;;;;;;;;;;;;;;;;;6739273;26;20072;-61
2024/04/16 02:45:34;;;;;;;;;;;;;;;;;;6738688;26;19932;-60
2024/04/16 02:48:39;;;;;;;;;;;;;;;;;;6738004;26;20125;-60
2024/04/16 02:51:42;;;;;;;;;;;;;;;;;;6738989;26;20024;-61
2024/04/16 02:54:48;;;;;;;;;;;;;;;;;;6738242;26;20001;-60
2024/04/16 02:57:53;;;;;;;;;;;;;;;;;;6739127;26;20022;-60
2024/04/16 03:00:58;;;;;;;;;;;;;;;;;;6751019;26;19931;-60
2024/04/16 03:04:01;;;;;;;;;;;;;;;;;;6781444;26;19927;-60
2024/04/16 03:07:06;;;;;;;;;;;;;;;;;;6801689;26;19940;-60
2024/04/16 03:10:13;;;;;;;;;;;;;;;;;;6790241;26;19935;-60
2024/04/16 03:13:21;;;;;;;;;;;;;;;;;;6827642;26;19943;-60
2024/04/16 03:16:24;;;;;;;;;;;;;;;;;;6828603;26;19927;-60
2024/04/16 03:19:29;;;;;;;;;;;;;;;;;;6808129;26;19925;-60
2024/04/16 03:22:32;;;;;;;;;;;;;;;;;;6783007;26;19945;-61
2024/04/16 03:25:42;;;;;;;;;;;;;;;;;;6824982;26;19931;-60
2024/04/16 03:28:50;;;;;;;;;;;;;;;;;;6827492;26;19931;-59
2024/04/16 03:31:53;;;;;;;;;;;;;;;;;;6828144;26;19931;-60
2024/04/16 03:34:59;;;;;;;;;;;;;;;;;;6827584;26;19952;-61
2024/04/16 03:38:04;;;;;;;;;;;;;;;;;;6784820;26;20083;-61
2024/04/16 03:41:09;;;;;;;;;;;;;;;;;;6782099;26;19924;-60
2024/04/16 03:44:17;;;;;;;;;;;;;;;;;;6782118;26;20118;-60
2024/04/16 03:47:20;;;;;;;;;;;;;;;;;;6782445;26;19935;-60
2024/04/16 03:50:25;;;;;;;;;;;;;;;;;;6781947;26;20002;-60
2024/04/16 03:53:28;;;;;;;;;;;;;;;;;;6781847;26;19924;-60
2024/04/16 03:56:34;;;;;;;;;;;;;;;;;;6782577;26;19992;-60
2024/04/16 04:03:00;;;;;;;;;;;;;;;;;;6782096;26;19924;-61
2024/04/16 04:06:06;;;;;;;;;;;;;;;;;;6782147;26;19931;-61
2024/04/16 04:09:08;;;;;;;;;;;;;;;;;;6765610;26;20094;-60
2024/04/16 04:12:14;;;;;;;;;;;;;;;;;;6738497;26;19925;-60
2024/04/16 04:15:19;;;;;;;;;;;;;;;;;;6757810;26;19924;-60
2024/04/16 04:18:24;;;;;;;;;;;;;;;;;;6737150;26;19925;-60
2024/04/16 04:21:27;;;;;;;;;;;;;;;;;;6771217;26;19924;-60
2024/04/16 04:24:32;;;;;;;;;;;;;;;;;;6747166;26;19932;-61
2024/04/16 04:27:41;;;;;;;;;;;;;;;;;;6773308;26;20005;-60
2024/04/16 04:30:49;;;;;;;;;;;;;;;;;;6738163;26;19932;-59
2024/04/16 04:33:54;;;;;;;;;;;;;;;;;;6776553;26;19925;-59
2024/04/16 04:36:57;;;;;;;;;;;;;;;;;;6781849;26;19925;-59
2024/04/16 04:40:02;;;;;;;;;;;;;;;;;;6781282;26;19933;-61
2024/04/16 04:43:05;;;;;;;;;;;;;;;;;;6781205;26;20192;-59
2024/04/16 04:46:13;;;;;;;;;;;;;;;;;;6781580;26;19924;-60
2024/04/16 04:49:15;;;;;;;;;;;;;;;;;;6780751;26;19932;-62
2024/04/16 04:52:21;;;;;;;;;;;;;;;;;;6781930;26;19928;-61
2024/04/16 04:55:24;;;;;;;;;;;;;;;;;;6781016;26;19924;-59
2024/04/16 04:58:29;;;;;;;;;;;;;;;;;;6780927;26;19925;-59
2024/04/16 05:01:34;;;;;;;;;;;;;;;;;;6781307;26;19972;-60
2024/04/16 05:04:40;;;;;;;;;;;;;;;;;;6780863;26;19931;-61
2024/04/16 05:07:45;;;;;;;;;;;;;;;;;;6780910;26;19924;-60
2024/04/16 05:10:48;;;;;;;;;;;;;;;;;;6789073;26;19930;-60
2024/04/16 05:13:55;;;;;;;;;;;;;;;;;;6825662;26;19924;-60
2024/04/16 05:17:03;;;;;;;;;;;;;;;;;;6826401;26;19931;-61
2024/04/16 05:20:06;;;;;;;;;;;;;;;;;;6825534;26;19924;-60
2024/04/16 05:23:11;;;;;;;;;;;;;;;;;;6819732;26;19947;-60
2024/04/16 05:26:13;;;;;;;;;;;;;;;;;;6780795;26;19932;-60
2024/04/16 05:29:19;;;;;;;;;;;;;;;;;;6779993;26;19924;-60
2024/04/16 05:32:24;;;;;;;;;;;;;;;;;;6780483;26;20172;-60
2024/04/16 05:35:29;;;;;;;;;;;;;;;;;;6780852;26;19925;-60
2024/04/16 05:38:32;;;;;;;;;;;;;;;;;;6780348;26;19924;-61
2024/04/16 05:41:37;;;;;;;;;;;;;;;;;;6780367;26;19925;-60
2024/04/16 05:44:43;;;;;;;;;;;;;;;;;;6780767;26;19932;-60
2024/04/16 05:47:48;;;;;;;;;;;;;;;;;;6779150;26;19924;-60
2024/04/16 05:50:53;;;;;;;;;;;;;;;;;;6780183;26;20029;-60
2024/04/16 05:53:59;;;;;;;;;;;;;;;;;;6780214;26;19931;-60
2024/04/16 05:57:04;;;;;;;;;;;;;;;;;;6781335;26;19932;-60
2024/04/16 06:00:10;;;;;;;;;;;;;;;;;;6779919;26;20036;-60
2024/04/16 06:03:18;;;;;;;;;;;;;;;;;;6780471;26;19925;-62
2024/04/16 06:06:21;;;;;;;;;;;;;;;;;;6781358;26;19924;-61
2024/04/16 06:09:26;;;;;;;;;;;;;;;;;;6781324;26;19948;-61
2024/04/16 06:12:28;;;;;;;;;;;;;;;;;;6825951;26;19924;-60
2024/04/16 06:15:34;;;;;;;;;;;;;;;;;;6814366;26;19928;-61
2024/04/16 06:18:40;;;;;;;;;;;;;;;;;;6825584;26;19946;-61
2024/04/16 06:21:45;;;;;;;;;;;;;;;;;;6826162;26;19926;-61
2024/04/16 06:24:48;;;;;;;;;;;;;;;;;;6792940;26;19932;-61
2024/04/16 06:27:54;;;;;;;;;;;;;;;;;;6780081;26;19924;-61
2024/04/16 06:30:57;;;;;;;;;;;;;;;;;;6780788;26;20222;-61
2024/04/16 06:34:06;;;;;;;;;;;;;;;;;;6779811;26;19955;-60
2024/04/16 06:37:08;;;;;;;;;;;;;;;;;;6783845;26;19925;-61
2024/04/16 06:40:15;;;;;;;;;;;;;;;;;;6784783;26;19924;-61
2024/04/16 06:43:17;;;;;;;;;;;;;;;;;;6784523;26;19948;-61
2024/04/16 06:46:23;;;;;;;;;;;;;;;;;;6785029;26;19925;-60
2024/04/16 06:49:31;;;;;;;;;;;;;;;;;;6783561;26;19932;-60
2024/04/16 06:52:34;;;;;;;;;;;;;;;;;;6784512;26;19925;-61
2024/04/16 06:55:39;;;;;;;;;;;;;;;;;;6750062;26;19925;-62
2024/04/16 06:58:45;;;;;;;;;;;;;;;;;;6739217;26;19995;-60
2024/04/16 07:01:50;;;;;;;;;;;;;;;;;;6748413;26;20081;-60
2024/04/16 07:04:55;;;;;;;;;;;;;;;;;;6783967;26;20332;-60
2024/04/16 07:08:00;;;;;;;;;;;;;;;;;;6783977;26;20126;-60
2024/04/16 07:11:06;;;;;;;;;;;;;;;;;;6809929;26;20905;-60
2024/04/16 07:14:12;;;;;;;;;;;;;;;;;;6829288;26;20098;-61
2024/04/16 07:17:14;;;;;;;;;;;;;;;;;;6829627;26;19928;-61
2024/04/16 07:20:22;;;;;;;;;;;;;;;;;;6829293;26;20117;-61
2024/04/16 07:23:27;;;;;;;;;;;;;;;;;;6819437;26;19931;-59
2024/04/16 07:26:30;;;;;;;;;;;;;;;;;;6784248;26;20126;-60
2024/04/16 07:29:36;;;;;;;;;;;;;;;;;;6783389;26;19925;-60
2024/04/16 07:32:38;;;;;;;;;;;;;;;;;;6783687;26;19983;-60
2024/04/16 07:35:52;;;;;;;;;;;;;;;;;;6783268;26;20016;-60
2024/04/16 07:38:57;;;;;;;;;;;;;;;;;;6783200;26;19931;-60
2024/04/16 07:42:00;;;;;;;;;;;;;;;;;;6783855;26;19925;-60
2024/04/16 07:45:06;;;;;;;;;;;;;;;;;;6783105;26;19925;-61
2024/04/16 07:48:08;;;;;;;;;;;;;;;;;;6782929;26;19947;-61
2024/04/16 07:51:16;;;;;;;;;;;;;;;;;;6783824;26;19928;-61
2024/04/16 07:54:21;;;;;;;;;;;;;;;;;;6782880;26;20210;-60
2024/04/16 07:57:24;;;;;;;;;;;;;;;;;;6783359;26;20026;-61
2024/04/16 08:00:30;;;;;;;;;;;;;;;;;;6783243;26;20125;-61
2024/04/16 08:03:33;;;;;;;;;;;;;;;;;;6782908;26;19925;-60
2024/04/16 08:06:41;;;;;;;;;;;;;;;;;;6783550;26;19931;-60
2024/04/16 08:09:46;;;;;;;;;;;;;;;;;;6788392;26;20024;-60
2024/04/16 08:12:51;;;;;;;;;;;;;;;;;;6828476;26;19928;-63
2024/04/16 08:15:54;;;;;;;;;;;;;;;;;;6829546;26;20015;-61
2024/04/16 08:19:00;;;;;;;;;;;;;;;;;;6828747;26;19931;-61
2024/04/16 08:22:06;;;;;;;;;;;;;;;;;;6828529;26;19924;-61
2024/04/16 08:25:17;;;;;;;;;;;;;;;;;;6790840;26;20107;-60
2024/04/16 08:28:22;;;;;;;;;;;;;;;;;;6782613;26;20129;-61
2024/04/16 08:31:28;;;;;;;;;;;;;;;;;;6783386;26;19931;-59
2024/04/16 08:34:34;;;;;;;;;;;;;;;;;;6782596;26;19943;-60
2024/04/16 08:37:42;;;;;;;;;;;;;;;;;;6783385;26;19928;-62
2024/04/16 08:40:48;;;;;;;;;;;;;;;;;;6782643;26;20120;-60
2024/04/16 08:43:50;;;;;;;;;;;;;;;;;;6773916;26;19925;-60
2024/04/16 08:46:56;;;;;;;;;;;;;;;;;;6780591;26;19931;-59
2024/04/16 08:49:58;;;;;;;;;;;;;;;;;;6781933;26;19931;-60
2024/04/16 08:53:07;;;;;;;;;;;;;;;;;;6781568;26;20041;-60
2024/04/16 08:56:12;;;;;;;;;;;;;;;;;;6782259;26;19935;-61
2024/04/16 08:59:15;;;;;;;;;;;;;;;;;;6780572;26;19924;-60
2024/04/16 09:02:20;;;;;;;;;;;;;;;;;;6781595;26;19924;-61
2024/04/16 09:05:22;;;;;;;;;;;;;;;;;;6781401;26;19935;-60
2024/04/16 09:08:30;;;;;;;;;;;;;;;;;;6781138;26;19924;-60
2024/04/16 09:11:33;;;;;;;;;;;;;;;;;;6814536;26;19924;-61
2024/04/16 09:14:39;;;;;;;;;;;;;;;;;;6826160;26;20395;-60
2024/04/16 09:17:47;;;;;;;;;;;;;;;;;;6827532;26;19931;-60
2024/04/16 09:20:57;;;;;;;;;;;;;;;;;;6826419;26;19952;-60
2024/04/16 09:24:05;;;;;;;;;;;;;;;;;;6807434;26;20331;-60
2024/04/16 09:27:10;;;;;;;;;;;;;;;;;;6781053;26;19932;-60
2024/04/16 09:30:13;;;;;;;;;;;;;;;;;;6780163;26;19924;-60
2024/04/16 09:33:18;;;;;;;;;;;;;;;;;;6780357;26;20017;-60
2024/04/16 09:36:37;;;;;;;;;;;;;;;;;;6780993;26;19925;-59
2024/04/16 09:39:42;;;;;;;;;;;;;;;;;;6780203;26;20143;-59
2024/04/16 09:42:47;;;;;;;;;;;;;;;;;;6781092;26;20029;-62
2024/04/16 09:45:50;;;;;;;;;;;;;;;;;;6779872;26;19929;-62
2024/04/16 09:48:55;;;;;;;;;;;;;;;;;;6779735;26;19928;-59
2024/04/16 09:52:01;;;;;;;;;;;;;;;;;;6780456;26;19924;-59
2024/04/16 09:55:08;;;;;;;;;;;;;;;;;;6780540;26;19932;-59
2024/04/16 09:58:16;;;;;;;;;;;;;;;;;;6779252;26;19924;-60
2024/04/16 10:01:19;;;;;;;;;;;;;;;;;;6779853;26;20007;-61
2024/04/16 10:04:24;;;;;;;;;;;;;;;;;;6779799;26;19983;-59
2024/04/16 10:07:28;;;;;;;;;;;;;;;;;;6780882;26;20537;-60
2024/04/16 10:10:36;;;;;;;;;;;;;;;;;;6798294;26;20118;-60
2024/04/16 10:13:39;;;;;;;;;;;;;;;;;;6829773;26;19924;-62
2024/04/16 10:16:44;;;;;;;;;;;;;;;;;;6830464;26;20054;-61
2024/04/16 10:19:47;;;;;;;;;;;;;;;;;;6821023;26;19943;-59
2024/04/16 10:22:58;;;;;;;;;;;;;;;;;;6828916;26;19924;-60
2024/04/16 10:26:04;;;;;;;;;;;;;;;;;;6783963;26;19949;-59
2024/04/16 10:29:14;;;;;;;;;;;;;;;;;;6780637;26;19924;-59
2024/04/16 10:32:19;;;;;;;;;;;;;;;;;;6784937;26;19924;-60
2024/04/16 10:35:24;;;;;;;;;;;;;;;;;;6785019;26;20114;-60
2024/04/16 10:38:27;;;;;;;;;;;;;;;;;;6784254;26;19925;-60
2024/04/16 10:41:35;;;;;;;;;;;;;;;;;;6784877;26;19931;-60
2024/04/16 10:44:38;;;;;;;;;;;;;;;;;;6785128;26;19924;-60
2024/04/16 10:47:43;;;;;;;;;;;;;;;;;;6785504;26;19924;-60
2024/04/16 10:50:49;;;;;;;;;;;;;;;;;;6775634;26;19924;-61
2024/04/16 10:53:54;;;;;;;;;;;;;;;;;;6783945;26;19924;-60
2024/04/16 10:56:59;;;;;;;;;;;;;;;;;;6783779;26;21055;-59
2024/04/16 11:00:04;;;;;;;;;;;;;;;;;;6778430;26;19925;-60
2024/04/16 11:03:15;;;;;;;;;;;;;;;;;;6783385;26;19925;-60
2024/04/16 11:06:18;;;;;;;;;;;;;;;;;;6783787;26;19925;-60
2024/04/16 11:09:23;;;;;;;;;;;;;;;;;;6783169;26;19924;-61
2024/04/16 11:12:28;;;;;;;;;;;;;;;;;;6828430;26;19927;-60
2024/04/16 11:15:35;;;;;;;;;;;;;;;;;;6828198;26;20013;-60
2024/04/16 11:18:37;;;;;;;;;;;;;;;;;;6828874;26;19931;-59
2024/04/16 11:21:43;;;;;;;;;;;;;;;;;;6828332;26;20100;-61
2024/04/16 11:24:45;;;;;;;;;;;;;;;;;;6798516;26;19928;-60
2024/04/16 11:27:53;;;;;;;;;;;;;;;;;;6783240;26;19931;-59
2024/04/16 11:30:56;;;;;;;;;;;;;;;;;;6782873;26;19932;-62
2024/04/16 11:34:02;;;;;;;;;;;;;;;;;;6783237;26;19925;-61
2024/04/16 11:37:05;;;;;;;;;;;;;;;;;;6783263;26;19925;-61
2024/04/16 11:40:11;;;;;;;;;;;;;;;;;;6782233;26;19925;-59
2024/04/16 11:43:16;;;;;;;;;;;;;;;;;;6781732;26;19925;-60
2024/04/16 11:46:21;;;;;;;;;;;;;;;;;;6782816;26;19924;-60
2024/04/16 11:49:24;;;;;;;;;;;;;;;;;;6783082;26;20129;-59
2024/04/16 11:52:29;;;;;;;;;;;;;;;;;;6783144;26;19929;-60
2024/04/16 11:55:32;;;;;;;;;;;;;;;;;;6781961;26;19940;-60
2024/04/16 11:58:40;;;;;;;;;;;;;;;;;;6782031;26;19937;-59
2024/04/16 12:01:42;;;;;;;;;;;;;;;;;;6782692;26;20025;-60
2024/04/16 12:04:48;;;;;;;;;;;;;;;;;;6783299;26;19929;-61
2024/04/16 12:07:51;;;;;;;;;;;;;;;;;;6782965;26;19936;-60
2024/04/16 12:10:56;;;;;;;;;;;;;;;;;;6758693;26;19925;-60
2024/04/16 12:14:04;;;;;;;;;;;;;;;;;;6781416;26;19931;-60
2024/04/16 12:17:09;;;;;;;;;;;;;;;;;;6782560;26;19932;-60
2024/04/16 12:20:14;;;;;;;;;;;;;;;;;;6781679;26;19924;-61
2024/04/16 12:23:17;;;;;;;;;;;;;;;;;;6774763;26;21117;-60
2024/04/16 12:26:22;;;;;;;;;;;;;;;;;;6782084;26;20018;-61
2024/04/16 12:29:30;;;;;;;;;;;;;;;;;;6768500;26;19924;-61
2024/04/16 12:32:33;;;;;;;;;;;;;;;;;;6781283;26;20132;-61
2024/04/16 12:35:38;;;;;;;;;;;;;;;;;;6781282;26;19938;-60
2024/04/16 12:38:41;;;;;;;;;;;;;;;;;;6782174;26;19931;-60
2024/04/16 12:41:47;;;;;;;;;;;;;;;;;;6782818;26;19924;-60
2024/04/16 12:44:52;;;;;;;;;;;;;;;;;;6781273;26;20133;-59
2024/04/16 12:47:58;;;;;;;;;;;;;;;;;;6781243;26;19931;-60
2024/04/16 12:51:00;;;;;;;;;;;;;;;;;;6781454;26;19932;-59
2024/04/16 12:54:06;;;;;;;;;;;;;;;;;;6780997;26;19924;-59
2024/04/16 12:57:08;;;;;;;;;;;;;;;;;;6781815;26;19928;-60
2024/04/16 13:00:17;;;;;;;;;;;;;;;;;;6781272;26;19925;-60
2024/04/16 13:03:19;;;;;;;;;;;;;;;;;;6780581;26;19987;-60
2024/04/16 13:06:25;;;;;;;;;;;;;;;;;;6782014;26;19931;-60
2024/04/16 13:09:27;;;;;;;;;;;;;;;;;;6783243;26;19950;-60
2024/04/16 13:12:33;;;;;;;;;;;;;;;;;;6826571;26;19924;-60
2024/04/16 13:15:41;;;;;;;;;;;;;;;;;;6825693;26;19934;-61
2024/04/16 13:18:46;;;;;;;;;;;;;;;;;;6826737;26;20106;-59
2024/04/16 13:21:49;;;;;;;;;;;;;;;;;;6826917;26;20036;-60
2024/04/16 13:24:54;;;;;;;;;;;;;;;;;;6794694;26;19928;-59
2024/04/16 13:27:57;;;;;;;;;;;;;;;;;;6780913;26;19924;-60
2024/04/16 13:31:05;;;;;;;;;;;;;;;;;;6780907;26;19925;-61
2024/04/16 13:34:08;;;;;;;;;;;;;;;;;;6780932;26;19931;-61
2024/04/16 13:37:13;;;;;;;;;;;;;;;;;;6781296;26;20002;-61
2024/04/16 13:40:16;;;;;;;;;;;;;;;;;;6780047;26;19924;-60
2024/04/16 13:43:21;;;;;;;;;;;;;;;;;;6780899;26;19932;-59
2024/04/16 13:46:27;;;;;;;;;;;;;;;;;;6784467;26;19951;-60
2024/04/16 13:49:32;;;;;;;;;;;;;;;;;;6785556;26;20340;-60
2024/04/16 13:52:34;;;;;;;;;;;;;;;;;;6785795;26;20228;-60
2024/04/16 13:55:40;;;;;;;;;;;;;;;;;;6785669;26;19924;-61
2024/04/16 13:58:42;;;;;;;;;;;;;;;;;;6785256;26;19932;-61
2024/04/16 14:01:50;;;;;;;;;;;;;;;;;;6785241;26;19924;-61
2024/04/16 14:04:53;;;;;;;;;;;;;;;;;;6784575;26;20348;-61
2024/04/16 14:07:58;;;;;;;;;;;;;;;;;;6784934;26;19924;-61
2024/04/16 14:11:01;;;;;;;;;;;;;;;;;;6799168;26;19935;-61
2024/04/16 14:14:08;;;;;;;;;;;;;;;;;;6809164;26;19931;-61
2024/04/16 14:17:16;;;;;;;;;;;;;;;;;;6830786;26;20109;-61
2024/04/16 14:20:21;;;;;;;;;;;;;;;;;;6820438;26;19928;-60
2024/04/16 14:23:27;;;;;;;;;;;;;;;;;;6820899;26;20529;-60
2024/04/16 14:26:29;;;;;;;;;;;;;;;;;;6784681;26;20114;-60
2024/04/16 14:29:34;;;;;;;;;;;;;;;;;;6784086;26;19925;-60
2024/04/16 14:32:42;;;;;;;;;;;;;;;;;;6785080;26;19931;-59
2024/04/16 14:35:45;;;;;;;;;;;;;;;;;;6785432;26;20070;-60
2024/04/16 14:38:51;;;;;;;;;;;;;;;;;;6784299;26;20214;-60
2024/04/16 14:41:53;;;;;;;;;;;;;;;;;;6785496;26;19986;-60
2024/04/16 14:44:59;;;;;;;;;;;;;;;;;;6778635;26;20125;-60
2024/04/16 14:48:07;;;;;;;;;;;;;;;;;;6784276;26;19948;-60
2024/04/16 14:51:12;;;;;;;;;;;;;;;;;;6785371;26;19925;-60
2024/04/16 14:54:15;;;;;;;;;;;;;;;;;;6784853;26;20211;-62
2024/04/16 14:57:21;;;;;;;;;;;;;;;;;;6784698;26;19929;-61
2024/04/16 15:00:24;;;;;;;;;;;;;;;;;;6784134;26;19931;-61
2024/04/16 15:03:32;;;;;;;;;;;;;;;;;;6783967;26;19924;-61
2024/04/16 15:06:35;;;;;;;;;;;;;;;;;;6784804;26;19932;-62
2024/04/16 15:09:40;;;;;;;;;;;;;;;;;;6788597;26;20118;-60
2024/04/16 15:12:43;;;;;;;;;;;;;;;;;;6829568;26;19924;-60
2024/04/16 15:15:56;;;;;;;;;;;;;;;;;;6828964;26;19931;-60
2024/04/16 15:19:04;;;;;;;;;;;;;;;;;;6828582;26;19925;-60
2024/04/16 15:22:07;;;;;;;;;;;;;;;;;;6830191;26;19931;-61
2024/04/16 15:25:13;;;;;;;;;;;;;;;;;;6793795;26;20025;-62
2024/04/16 15:28:16;;;;;;;;;;;;;;;;;;6783848;26;19924;-60
2024/04/16 15:31:21;;;;;;;;;;;;;;;;;;6784365;26;19924;-60
2024/04/16 15:34:27;;;;;;;;;;;;;;;;;;6771082;26;19925;-61
2024/04/16 15:37:32;;;;;;;;;;;;;;;;;;6784255;26;19925;-61
2024/04/16 15:40:36;;;;;;;;;;;;;;;;;;6783358;26;19926;-60
2024/04/16 15:43:41;;;;;;;;;;;;;;;;;;6783124;26;19925;-60
2024/04/16 15:46:50;;;;;;;;;;;;;;;;;;6783900;26;19928;-61
2024/04/16 15:49:57;;;;;;;;;;;;;;;;;;6783278;26;19924;-61
2024/04/16 15:53:02;;;;;;;;;;;;;;;;;;6782278;26;19954;-59
2024/04/16 15:56:07;;;;;;;;;;;;;;;;;;6782827;26;19932;-61
2024/04/16 15:59:13;;;;;;;;;;;;;;;;;;6782484;26;19925;-60
2024/04/16 16:02:15;;;;;;;;;;;;;;;;;;6783237;26;19924;-61
2024/04/16 16:05:25;;;;;;;;;;;;;;;;;;6782543;26;19931;-60
2024/04/16 16:08:30;;;;;;;;;;;;;;;;;;6782228;26;19925;-61
2024/04/16 16:11:33;;;;;;;;;;;;;;;;;;6815970;26;21003;-62
2024/04/16 16:14:38;;;;;;;;;;;;;;;;;;6827566;26;19931;-61
2024/04/16 16:17:41;;;;;;;;;;;;;;;;;;6827568;26;20132;-60
2024/04/16 16:20:50;;;;;;;;;;;;;;;;;;6826776;26;20140;-61
2024/04/16 16:23:56;;;;;;;;;;;;;;;;;;6810884;26;19924;-61
2024/04/16 16:27:01;;;;;;;;;;;;;;;;;;6782098;26;19925;-60
2024/04/16 16:30:04;;;;;;;;;;;;;;;;;;6781730;26;19924;-61
2024/04/16 16:33:09;;;;;;;;;;;;;;;;;;6782031;26;19932;-61
2024/04/16 16:36:14;;;;;;;;;;;;;;;;;;6782044;26;20009;-60
2024/04/16 16:39:20;;;;;;;;;;;;;;;;;;6781481;26;19925;-60
2024/04/16 16:42:25;;;;;;;;;;;;;;;;;;6781683;26;19931;-60
2024/04/16 16:45:27;;;;;;;;;;;;;;;;;;6782641;26;19924;-60
2024/04/16 16:48:36;;;;;;;;;;;;;;;;;;6771955;26;20279;-60
2024/04/16 16:51:43;;;;;;;;;;;;;;;;;;6781669;26;19924;-60
2024/04/16 16:54:48;;;;;;;;;;;;;;;;;;6784016;26;20405;-61
2024/04/16 16:57:53;;;;;;;;;;;;;;;;;;6781116;26;19924;-62
2024/04/16 17:00:58;;;;;;;;;;;;;;;;;;6781156;26;20009;-61
2024/04/16 17:04:01;;;;;;;;;;;;;;;;;;6781139;26;20829;-62
2024/04/16 17:07:09;;;;;;;;;;;;;;;;;;6781539;26;20122;-60
2024/04/16 17:10:11;;;;;;;;;;;;;;;;;;6793531;26;20021;-61
2024/04/16 17:13:17;;;;;;;;;;;;;;;;;;6825760;26;20114;-61
2024/04/16 17:16:22;;;;;;;;;;;;;;;;;;6826522;26;20662;-60
2024/04/16 17:19:25;;;;;;;;;;;;;;;;;;6825517;26;19924;-61
2024/04/16 17:22:33;;;;;;;;;;;;;;;;;;6827023;26;20021;-60
2024/04/16 17:25:36;;;;;;;;;;;;;;;;;;6784810;26;19925;-61
2024/04/16 17:28:41;;;;;;;;;;;;;;;;;;6780981;26;19924;-60
2024/04/16 17:31:43;;;;;;;;;;;;;;;;;;6781131;26;19924;-60
2024/04/16 17:34:49;;;;;;;;;;;;;;;;;;6780444;26;19925;-61
2024/04/16 17:37:56;;;;;;;;;;;;;;;;;;6780447;26;19936;-60
2024/04/16 17:41:03;;;;;;;;;;;;;;;;;;6781040;26;19931;-61
2024/04/16 17:44:08;;;;;;;;;;;;;;;;;;6780771;26;19925;-62
2024/04/16 17:47:13;;;;;;;;;;;;;;;;;;6781527;26;20144;-60
2024/04/16 17:50:16;;;;;;;;;;;;;;;;;;6781441;26;19925;-60
2024/04/16 17:53:24;;;;;;;;;;;;;;;;;;6781033;26;19925;-62
2024/04/16 17:56:28;;;;;;;;;;;;;;;;;;6771278;26;19924;-62
2024/04/16 17:59:33;;;;;;;;;;;;;;;;;;6781658;26;19924;-61
2024/04/16 18:02:36;;;;;;;;;;;;;;;;;;6781310;26;19931;-62
2024/04/16 18:05:41;;;;;;;;;;;;;;;;;;6734596;26;20106;-62
2024/04/16 18:08:47;;;;;;;;;;;;;;;;;;6764836;26;19932;-62
2024/04/16 18:11:52;;;;;;;;;;;;;;;;;;6817591;26;19931;-62
2024/04/16 18:14:54;;;;;;;;;;;;;;;;;;6825353;26;20022;-62
2024/04/16 18:18:00;;;;;;;;;;;;;;;;;;6797988;26;19924;-61
2024/04/16 18:21:03;;;;;;;;;;;;;;;;;;6808613;26;19928;-61
2024/04/16 18:24:12;;;;;;;;;;;;;;;;;;6805470;26;20025;-62
2024/04/16 18:27:15;;;;;;;;;;;;;;;;;;6780616;26;19924;-61
2024/04/16 18:30:20;;;;;;;;;;;;;;;;;;6780072;26;19931;-61
2024/04/16 18:33:25;;;;;;;;;;;;;;;;;;6784391;26;20018;-62
2024/04/16 18:36:28;;;;;;;;;;;;;;;;;;6785304;26;19955;-61
2024/04/16 18:39:36;;;;;;;;;;;;;;;;;;6784914;26;19982;-61
2024/04/16 18:42:39;;;;;;;;;;;;;;;;;;6784859;26;19925;-61
2024/04/16 18:45:45;;;;;;;;;;;;;;;;;;6784654;26;19931;-61
2024/04/16 18:48:47;;;;;;;;;;;;;;;;;;6784744;26;19924;-61
2024/04/16 18:51:53;;;;;;;;;;;;;;;;;;6784966;26;19931;-62
2024/04/16 18:54:58;;;;;;;;;;;;;;;;;;6784776;26;19924;-61
2024/04/16 18:58:03;;;;;;;;;;;;;;;;;;6785346;26;19955;-61
2024/04/16 19:01:06;;;;;;;;;;;;;;;;;;6786199;26;19931;-62
2024/04/16 19:04:12;;;;;;;;;;;;;;;;;;6784888;26;19924;-62
2024/04/16 19:07:15;;;;;;;;;;;;;;;;;;6783990;26;19924;-61
2024/04/16 19:10:24;;;;;;;;;;;;;;;;;;6766303;26;19932;-61
2024/04/16 19:13:29;;;;;;;;;;;;;;;;;;6799481;26;19924;-61
2024/04/16 19:16:34;;;;;;;;;;;;;;;;;;6829916;26;21674;-61
2024/04/16 19:19:40;;;;;;;;;;;;;;;;;;6824146;26;19931;-62
2024/04/16 19:22:43;;;;;;;;;;;;;;;;;;6799410;26;19924;-60
2024/04/16 19:25:51;;;;;;;;;;;;;;;;;;6769377;26;19929;-60
2024/04/16 19:28:53;;;;;;;;;;;;;;;;;;6784195;26;20276;-61
2024/04/16 19:31:59;;;;;;;;;;;;;;;;;;6783457;26;19928;-62
2024/04/16 19:35:02;;;;;;;;;;;;;;;;;;6783972;26;19928;-62
2024/04/16 19:38:07;;;;;;;;;;;;;;;;;;6783834;26;19931;-62
2024/04/16 19:41:15;;;;;;;;;;;;;;;;;;6784240;26;20290;-61
2024/04/16 19:44:20;;;;;;;;;;;;;;;;;;6783228;26;19924;-61
2024/04/16 19:47:23;;;;;;;;;;;;;;;;;;6782797;26;20122;-61
2024/04/16 19:50:29;;;;;;;;;;;;;;;;;;6783636;26;19929;-63
2024/04/16 19:53:35;;;;;;;;;;;;;;;;;;6736537;26;19925;-61
2024/04/16 19:56:40;;;;;;;;;;;;;;;;;;6738818;26;19932;-61
2024/04/16 19:59:46;;;;;;;;;;;;;;;;;;6783343;26;19924;-61
2024/04/16 20:02:48;;;;;;;;;;;;;;;;;;6784848;26;20010;-64
2024/04/16 20:05:56;;;;;;;;;;;;;;;;;;6783664;26;19924;-61
2024/04/16 20:09:02;;;;;;;;;;;;;;;;;;6783824;26;19925;-62
2024/04/16 20:12:10;;;;;;;;;;;;;;;;;;6825159;26;19931;-61
2024/04/16 20:15:12;;;;;;;;;;;;;;;;;;6828796;26;19933;-61
2024/04/16 20:18:20;;;;;;;;;;;;;;;;;;6827291;26;19924;-61
2024/04/16 20:21:25;;;;;;;;;;;;;;;;;;6827584;26;20015;-61
2024/04/16 20:24:33;;;;;;;;;;;;;;;;;;6802315;26;19947;-61
2024/04/16 20:27:38;;;;;;;;;;;;;;;;;;6781768;26;19924;-61
2024/04/16 20:30:44;;;;;;;;;;;;;;;;;;6782995;26;19924;-61
2024/04/16 20:33:47;;;;;;;;;;;;;;;;;;6780778;26;19924;-61
2024/04/16 20:36:52;;;;;;;;;;;;;;;;;;6779175;26;19928;-61
2024/04/16 20:39:55;;;;;;;;;;;;;;;;;;6781322;26;19932;-61
2024/04/16 20:43:04;;;;;;;;;;;;;;;;;;6781993;26;19929;-61
2024/04/16 20:46:09;;;;;;;;;;;;;;;;;;6737362;26;20185;-61
2024/04/16 20:49:14;;;;;;;;;;;;;;;;;;6736846;26;20000;-61
2024/04/16 20:52:17;;;;;;;;;;;;;;;;;;6780676;26;19924;-61
2024/04/16 20:55:23;;;;;;;;;;;;;;;;;;6781209;26;19924;-61
2024/04/16 20:58:28;;;;;;;;;;;;;;;;;;6780250;26;19986;-61
2024/04/16 21:01:34;;;;;;;;;;;;;;;;;;6780698;26;19931;-60
2024/04/16 21:04:39;;;;;;;;;;;;;;;;;;6782322;26;19931;-61
2024/04/16 21:07:42;;;;;;;;;;;;;;;;;;6782938;26;19924;-61